createdAt,value
2018-07-21T00:02:22.052Z,5.97
2018-07-21T00:04:50.123Z,5.97
2018-07-21T00:07:18.572Z,5.23
2018-07-21T00:09:46.924Z,4.53
2018-07-21T00:12:15.314Z,4.37
2018-07-21T00:14:43.723Z,4.93
2018-07-21T00:17:12.060Z,4.47
2018-07-21T00:19:40.525Z,5.13
2018-07-21T00:22:08.583Z,3.97
2018-07-21T00:24:36.996Z,4.50
2018-07-21T00:27:05.339Z,3.63
2018-07-21T00:29:33.757Z,4.87
2018-07-21T00:32:02.145Z,4.90
2018-07-21T00:34:30.459Z,5.60
2018-07-21T00:36:58.834Z,6.27
2018-07-21T00:39:27.204Z,5.33
2018-07-21T00:41:55.693Z,5.30
2018-07-21T00:44:24.092Z,5.00
2018-07-21T00:46:52.478Z,5.60
2018-07-21T00:49:20.874Z,5.97
2018-07-21T00:51:49.380Z,5.70
2018-07-21T00:54:17.746Z,5.13
2018-07-21T00:56:46.163Z,5.50
2018-07-21T00:59:14.490Z,5.63
2018-07-21T01:01:42.960Z,6.77
2018-07-21T01:04:11.303Z,6.83
2018-07-21T01:06:39.652Z,6.50
2018-07-21T01:09:09.401Z,7.03
2018-07-21T01:11:37.792Z,6.40
2018-07-21T01:14:06.345Z,7.23
2018-07-21T01:16:41.361Z,7.13
2018-07-21T01:19:09.800Z,8.00
2018-07-21T01:21:38.135Z,8.80
2018-07-21T01:24:09.682Z,8.30
2018-07-21T01:26:38.079Z,7.67
2018-07-21T01:29:06.411Z,7.43
2018-07-21T01:31:34.771Z,8.60
2018-07-21T01:34:03.104Z,8.00
2018-07-21T01:36:38.017Z,8.07
2018-07-21T01:39:08.486Z,7.13
2018-07-21T01:41:36.856Z,8.33
2018-07-21T01:44:05.336Z,8.30
2018-07-21T01:46:33.788Z,7.73
2018-07-21T01:49:02.138Z,7.20
2018-07-21T01:51:30.382Z,8.20
2018-07-21T01:53:58.721Z,9.40
2018-07-21T01:56:27.084Z,7.80
2018-07-21T01:58:55.966Z,9.10
2018-07-21T02:01:24.004Z,8.10
2018-07-21T02:03:52.370Z,8.80
2018-07-21T02:06:20.828Z,7.50
2018-07-21T02:08:49.172Z,7.13
2018-07-21T02:11:17.416Z,6.73
2018-07-21T02:13:46.352Z,7.77
2018-07-21T02:16:14.712Z,7.70
2018-07-21T02:18:43.052Z,6.67
2018-07-21T02:21:11.403Z,7.90
2018-07-21T02:23:39.796Z,7.77
2018-07-21T02:26:08.168Z,7.43
2018-07-21T02:28:36.556Z,6.83
2018-07-21T02:31:04.888Z,6.70
2018-07-21T02:33:32.988Z,7.53
2018-07-21T02:36:01.417Z,5.60
2018-07-21T02:38:29.800Z,5.43
2018-07-21T02:40:58.180Z,6.80
2018-07-21T02:43:26.493Z,7.53
2018-07-21T02:45:54.870Z,6.93
2018-07-21T02:48:23.197Z,5.97
2018-07-21T02:50:52.258Z,7.30
2018-07-21T02:53:21.217Z,7.13
2018-07-21T02:55:49.267Z,7.83
2018-07-21T02:58:17.618Z,8.73
2018-07-21T03:00:46.560Z,7.93
2018-07-21T03:03:14.924Z,7.53
2018-07-21T03:05:43.393Z,7.63
2018-07-21T03:08:11.751Z,7.30
2018-07-21T03:10:40.144Z,7.83
2018-07-21T03:13:08.516Z,7.23
2018-07-21T03:15:36.973Z,7.83
2018-07-21T03:18:05.317Z,6.30
2018-07-21T03:20:33.337Z,7.77
2018-07-21T03:23:01.745Z,6.87
2018-07-21T03:25:30.257Z,6.93
2018-07-21T03:27:58.591Z,7.50
2018-07-21T03:30:26.975Z,7.20
2018-07-21T03:32:55.343Z,7.57
2018-07-21T03:35:23.711Z,7.70
2018-07-21T03:37:52.067Z,8.17
2018-07-21T03:40:20.425Z,7.67
2018-07-21T03:42:48.796Z,7.57
2018-07-21T03:45:16.941Z,6.97
2018-07-21T03:47:45.341Z,7.33
2018-07-21T03:50:13.669Z,7.87
2018-07-21T03:52:42.032Z,8.43
2018-07-21T03:55:10.409Z,9.67
2018-07-21T03:57:38.711Z,9.13
2018-07-21T04:00:07.142Z,8.90
2018-07-21T04:02:35.200Z,9.13
2018-07-21T04:05:03.459Z,8.40
2018-07-21T04:07:31.797Z,8.50
2018-07-21T04:10:00.143Z,9.33
2018-07-21T04:12:28.688Z,9.23
2018-07-21T04:14:57.025Z,9.07
2018-07-21T04:17:26.570Z,7.87
2018-07-21T04:19:55.843Z,9.17
2018-07-21T04:22:24.967Z,9.00
2018-07-21T04:24:53.545Z,7.43
2018-07-21T04:27:25.155Z,9.07
2018-07-21T04:29:53.432Z,8.57
2018-07-21T04:32:21.809Z,8.80
2018-07-21T04:34:50.275Z,9.33
2018-07-21T04:37:18.335Z,8.83
2018-07-21T04:39:46.673Z,8.93
2018-07-21T04:42:15.041Z,7.70
2018-07-21T04:44:43.511Z,7.00
2018-07-21T04:47:12.051Z,6.67
2018-07-21T04:49:40.483Z,7.40
2018-07-21T04:52:08.973Z,6.50
2018-07-21T04:54:37.356Z,6.87
2018-07-21T04:57:05.875Z,7.43
2018-07-21T04:59:33.943Z,6.47
2018-07-21T05:02:02.515Z,5.27
2018-07-21T05:04:30.829Z,6.67
2018-07-21T05:06:58.922Z,5.97
2018-07-21T05:09:27.275Z,6.37
2018-07-21T05:11:55.357Z,5.60
2018-07-21T05:14:23.701Z,6.13
2018-07-21T05:16:52.063Z,6.27
2018-07-21T05:19:20.406Z,6.60
2018-07-21T05:21:48.781Z,6.60
2018-07-21T05:24:17.119Z,6.30
2018-07-21T05:26:45.492Z,6.57
2018-07-21T05:29:14.514Z,5.40
2018-07-21T05:31:42.877Z,5.60
2018-07-21T05:34:11.322Z,6.33
2018-07-21T05:36:39.698Z,5.90
2018-07-21T05:39:09.300Z,5.80
2018-07-21T05:41:37.635Z,5.70
2018-07-21T05:44:06.017Z,6.40
2018-07-21T05:46:34.928Z,5.07
2018-07-21T05:49:03.339Z,4.67
2018-07-21T05:51:31.699Z,4.77
2018-07-21T05:54:00.071Z,5.13
2018-07-21T05:56:28.630Z,4.60
2018-07-21T05:58:57.190Z,3.90
2018-07-21T06:01:25.573Z,4.27
2018-07-21T06:03:53.919Z,3.60
2018-07-21T06:06:22.277Z,4.00
2018-07-21T06:08:51.415Z,4.17
2018-07-21T06:11:19.937Z,3.90
2018-07-21T06:13:48.255Z,3.97
2018-07-21T06:16:16.993Z,4.70
2018-07-21T06:18:45.449Z,3.90
2018-07-21T06:21:13.702Z,4.17
2018-07-21T06:23:42.731Z,4.27
2018-07-21T06:26:11.095Z,4.90
2018-07-21T06:28:39.655Z,4.10
2018-07-21T06:31:08.025Z,3.97
2018-07-21T06:33:36.418Z,5.17
2018-07-21T06:36:04.833Z,3.50
2018-07-21T06:38:32.890Z,3.40
2018-07-21T06:41:01.302Z,3.87
2018-07-21T06:43:29.697Z,5.70
2018-07-21T06:45:58.081Z,5.00
2018-07-21T06:48:26.499Z,5.70
2018-07-21T06:50:54.876Z,4.70
2018-07-21T06:53:23.275Z,3.73
2018-07-21T06:55:51.686Z,2.87
2018-07-21T06:58:20.102Z,4.10
2018-07-21T07:00:48.432Z,4.63
2018-07-21T07:03:16.791Z,3.83
2018-07-21T07:05:45.170Z,4.17
2018-07-21T07:08:13.513Z,4.13
2018-07-21T07:10:41.852Z,3.00
2018-07-21T07:13:10.217Z,3.60
2018-07-21T07:15:38.604Z,4.20
2018-07-21T07:18:07.955Z,3.93
2018-07-21T07:20:36.328Z,3.80
2018-07-21T07:23:04.699Z,4.00
2018-07-21T07:25:33.725Z,3.10
2018-07-21T07:28:02.074Z,4.30
2018-07-21T07:30:30.448Z,3.93
2018-07-21T07:32:59.700Z,3.93
2018-07-21T07:35:27.759Z,3.63
2018-07-21T07:37:56.100Z,3.70
2018-07-21T07:40:24.624Z,4.07
2018-07-21T07:42:53.012Z,4.23
2018-07-21T07:45:21.444Z,4.10
2018-07-21T07:47:49.945Z,5.10
2018-07-21T07:50:18.341Z,4.93
2018-07-21T07:52:46.754Z,5.10
2018-07-21T07:55:15.110Z,5.10
2018-07-21T07:57:43.168Z,5.10
2018-07-21T08:00:11.564Z,5.47
2018-07-21T08:02:39.640Z,4.80
2018-07-21T08:05:07.883Z,5.83
2018-07-21T08:07:36.267Z,5.37
2018-07-21T08:10:05.083Z,6.30
2018-07-21T08:12:33.334Z,7.47
2018-07-21T08:15:02.100Z,8.10
2018-07-21T08:17:30.571Z,7.63
2018-07-21T08:19:59.024Z,8.27
2018-07-21T08:22:30.164Z,9.50
2018-07-21T08:24:58.626Z,8.63
2018-07-21T08:27:27.668Z,8.67
2018-07-21T08:29:56.024Z,9.07
2018-07-21T08:32:24.404Z,10.37
2018-07-21T08:34:52.952Z,7.63
2018-07-21T08:37:21.544Z,9.50
2018-07-21T08:39:50.004Z,10.10
2018-07-21T08:42:18.384Z,8.20
2018-07-21T08:44:47.055Z,9.13
2018-07-21T08:47:15.828Z,8.10
2018-07-21T08:49:44.377Z,8.40
2018-07-21T08:52:12.873Z,8.10
2018-07-21T08:54:41.400Z,7.10
2018-07-21T08:57:09.872Z,6.97
2018-07-21T08:59:38.289Z,6.23
2018-07-21T09:02:07.060Z,6.07
2018-07-21T09:04:35.574Z,6.20
2018-07-21T09:07:04.004Z,5.57
2018-07-21T09:09:33.697Z,5.27
2018-07-21T09:12:02.769Z,5.07
2018-07-21T09:14:31.166Z,5.70
2018-07-21T09:16:59.628Z,4.70
2018-07-21T09:19:28.108Z,4.67
2018-07-21T09:21:56.836Z,4.63
2018-07-21T09:24:25.311Z,3.77
2018-07-21T09:26:53.983Z,4.87
2018-07-21T09:29:22.551Z,4.50
2018-07-21T09:31:50.964Z,4.90
2018-07-21T09:34:19.388Z,4.53
2018-07-21T09:36:48.152Z,4.23
2018-07-21T09:39:16.764Z,4.13
2018-07-21T09:41:45.233Z,4.43
2018-07-21T09:44:13.313Z,4.73
2018-07-21T09:46:41.900Z,4.33
2018-07-21T09:49:10.499Z,4.90
2018-07-21T09:51:38.984Z,4.53
2018-07-21T09:54:08.262Z,5.27
2018-07-21T09:56:36.790Z,4.83
2018-07-21T09:59:06.724Z,4.27
2018-07-21T10:01:35.160Z,4.03
2018-07-21T10:04:03.516Z,4.70
2018-07-21T10:06:31.902Z,3.40
2018-07-21T10:09:00.299Z,3.93
2018-07-21T10:11:28.772Z,3.40
2018-07-21T10:13:57.120Z,3.60
2018-07-21T10:16:25.524Z,3.67
2018-07-21T10:18:53.889Z,3.23
2018-07-21T10:21:22.270Z,3.60
2018-07-21T10:23:50.636Z,3.17
2018-07-21T10:26:24.288Z,3.40
2018-07-21T10:28:57.937Z,4.60
2018-07-21T10:31:25.998Z,6.00
2018-07-21T10:33:54.436Z,5.87
2018-07-21T10:36:22.780Z,4.03
2018-07-21T10:38:50.847Z,4.03
2018-07-21T10:41:18.932Z,5.73
2018-07-21T10:43:47.312Z,4.37
2018-07-21T10:46:15.563Z,5.83
2018-07-21T10:48:43.923Z,3.10
2018-07-21T10:51:12.844Z,4.40
2018-07-21T10:53:41.253Z,2.87
2018-07-21T10:56:09.666Z,3.47
2018-07-21T10:58:38.090Z,3.17
2018-07-21T11:01:06.466Z,2.93
2018-07-21T11:03:34.846Z,2.80
2018-07-21T11:06:03.240Z,3.07
2018-07-21T11:08:32.088Z,2.90
2018-07-21T11:11:00.479Z,2.50
2018-07-21T11:13:28.894Z,2.90
2018-07-21T11:15:57.260Z,3.13
2018-07-21T11:18:25.724Z,2.87
2018-07-21T11:20:54.098Z,3.00
2018-07-21T11:23:22.476Z,3.27
2018-07-21T11:25:50.837Z,3.23
2018-07-21T11:28:19.445Z,3.93
2018-07-21T11:30:48.189Z,3.97
2018-07-21T11:33:16.541Z,3.57
2018-07-21T11:35:44.992Z,4.10
2018-07-21T11:38:13.274Z,3.73
2018-07-21T11:40:41.648Z,3.93
2018-07-21T11:43:10.072Z,4.60
2018-07-21T11:45:38.439Z,4.20
2018-07-21T11:48:06.822Z,4.57
2018-07-21T11:50:35.189Z,4.40
2018-07-21T11:53:03.530Z,4.13
2018-07-21T11:55:31.903Z,4.30
2018-07-21T11:58:00.259Z,4.10
2018-07-21T12:00:28.659Z,4.20
2018-07-21T12:02:57.113Z,3.93
2018-07-21T12:05:25.481Z,4.77
2018-07-21T12:07:54.192Z,4.37
2018-07-21T12:10:22.297Z,4.40
2018-07-21T12:12:50.723Z,5.10
2018-07-21T12:15:19.129Z,4.00
2018-07-21T12:17:47.547Z,5.30
2018-07-21T12:20:16.010Z,4.60
2018-07-21T12:22:44.389Z,4.43
2018-07-21T12:25:12.797Z,4.63
2018-07-21T12:27:41.149Z,5.50
2018-07-21T12:30:09.499Z,5.23
2018-07-21T12:32:38.000Z,4.50
2018-07-21T12:35:07.042Z,5.40
2018-07-21T12:37:35.465Z,7.73
2018-07-21T12:40:03.910Z,8.30
2018-07-21T12:42:32.277Z,7.07
2018-07-21T12:45:00.669Z,5.83
2018-07-21T12:47:29.261Z,6.10
2018-07-21T12:49:57.688Z,4.30
2018-07-21T12:52:25.849Z,3.97
2018-07-21T12:54:54.287Z,4.80
2018-07-21T12:57:22.785Z,4.77
2018-07-21T12:59:51.169Z,5.50
2018-07-21T13:02:19.788Z,5.60
2018-07-21T13:04:48.167Z,5.00
2018-07-21T13:07:18.303Z,4.70
2018-07-21T13:09:46.712Z,5.13
2018-07-21T13:12:15.135Z,4.53
2018-07-21T13:14:43.552Z,4.40
2018-07-21T13:17:11.943Z,5.50
2018-07-21T13:19:40.307Z,4.93
2018-07-21T13:22:08.889Z,5.20
2018-07-21T13:24:37.483Z,4.13
2018-07-21T13:27:05.975Z,5.10
2018-07-21T13:29:34.924Z,5.23
2018-07-21T13:32:03.309Z,5.03
2018-07-21T13:34:31.677Z,4.93
2018-07-21T13:37:00.044Z,4.30
2018-07-21T13:39:28.437Z,4.57
2018-07-21T13:41:56.813Z,4.23
2018-07-21T13:44:25.227Z,4.50
2018-07-21T13:46:53.544Z,4.67
2018-07-21T13:49:22.045Z,5.30
2018-07-21T13:51:50.434Z,4.80
2018-07-21T13:54:19.384Z,4.23
2018-07-21T13:56:47.729Z,5.00
2018-07-21T13:59:16.148Z,4.60
2018-07-21T14:01:44.542Z,4.60
2018-07-21T14:04:12.987Z,4.60
2018-07-21T14:06:41.462Z,4.50
2018-07-21T14:09:10.201Z,3.73
2018-07-21T14:11:38.848Z,4.20
2018-07-21T14:14:07.524Z,3.83
2018-07-21T14:16:35.912Z,3.20
2018-07-21T14:19:04.312Z,3.80
2018-07-21T14:21:32.728Z,3.37
2018-07-21T14:24:01.236Z,3.50
2018-07-21T14:26:29.509Z,3.33
2018-07-21T14:28:57.887Z,3.50
2018-07-21T14:31:26.316Z,4.07
2018-07-21T14:33:54.969Z,3.47
2018-07-21T14:36:23.504Z,3.70
2018-07-21T14:38:52.350Z,3.43
2018-07-21T14:41:20.791Z,3.43
2018-07-21T14:43:49.256Z,2.93
2018-07-21T14:46:17.384Z,3.60
2018-07-21T14:48:45.817Z,2.80
2018-07-21T14:51:15.862Z,3.20
2018-07-21T14:53:44.384Z,3.10
2018-07-21T14:56:13.492Z,2.93
2018-07-21T14:58:42.040Z,3.60
2018-07-21T15:01:10.491Z,3.03
2018-07-21T15:03:38.920Z,3.60
2018-07-21T15:06:07.573Z,3.20
2018-07-21T15:08:35.956Z,3.27
2018-07-21T15:11:04.411Z,3.00
2018-07-21T15:13:32.881Z,3.00
2018-07-21T15:16:01.259Z,2.93
2018-07-21T15:18:29.311Z,2.30
2018-07-21T15:20:57.668Z,2.87
2018-07-21T15:23:26.657Z,2.47
2018-07-21T15:25:55.071Z,1.70
2018-07-21T15:28:23.314Z,2.57
2018-07-21T15:30:51.729Z,2.10
2018-07-21T15:33:20.095Z,1.90
2018-07-21T15:35:48.456Z,2.53
2018-07-21T15:38:16.824Z,1.73
2018-07-21T15:40:45.202Z,2.20
2018-07-21T15:43:13.582Z,2.20
2018-07-21T15:45:41.990Z,2.47
2018-07-21T15:48:10.323Z,2.30
2018-07-21T15:50:39.396Z,2.57
2018-07-21T15:53:07.852Z,2.60
2018-07-21T15:55:36.120Z,2.60
2018-07-21T15:58:04.473Z,2.20
2018-07-21T16:00:32.825Z,2.33
2018-07-21T16:03:01.211Z,1.97
2018-07-21T16:05:29.676Z,2.27
2018-07-21T16:07:58.641Z,2.47
2018-07-21T16:10:27.065Z,2.30
2018-07-21T16:12:55.458Z,2.67
2018-07-21T16:15:23.953Z,2.47
2018-07-21T16:17:52.256Z,2.57
2018-07-21T16:20:20.334Z,2.60
2018-07-21T16:22:48.902Z,2.30
2018-07-21T16:25:17.310Z,2.67
2018-07-21T16:27:45.900Z,3.20
2018-07-21T16:30:14.306Z,2.77
2018-07-21T16:32:42.664Z,2.60
2018-07-21T16:35:11.191Z,2.20
2018-07-21T16:37:40.160Z,2.00
2018-07-21T16:40:08.773Z,2.87
2018-07-21T16:42:37.082Z,3.10
2018-07-21T16:45:05.554Z,2.57
2018-07-21T16:47:34.029Z,2.87
2018-07-21T16:50:02.120Z,2.77
2018-07-21T16:52:30.490Z,10.13
2018-07-21T16:54:58.730Z,2.53
2018-07-21T16:57:26.776Z,3.00
2018-07-21T16:59:55.222Z,2.70
2018-07-21T17:02:23.520Z,3.20
2018-07-21T17:04:51.912Z,2.10
2018-07-21T17:07:20.279Z,3.10
2018-07-21T17:09:48.633Z,8.17
2018-07-21T17:12:17.002Z,7.27
2018-07-21T17:14:45.395Z,3.00
2018-07-21T17:17:14.054Z,3.00
2018-07-21T17:19:42.605Z,2.77
2018-07-21T17:22:11.139Z,2.80
2018-07-21T17:24:39.485Z,2.77
2018-07-21T17:27:07.869Z,2.97
2018-07-21T17:29:36.271Z,2.90
2018-07-21T17:32:05.341Z,2.90
2018-07-21T17:34:33.689Z,2.40
2018-07-21T17:37:02.768Z,2.57
2018-07-21T17:39:31.121Z,4.57
2018-07-21T17:41:59.476Z,2.77
2018-07-21T17:44:27.867Z,3.93
2018-07-21T17:46:56.234Z,2.53
2018-07-21T17:49:24.760Z,2.73
2018-07-21T17:51:53.063Z,2.63
2018-07-21T17:54:21.938Z,2.97
2018-07-21T17:56:50.339Z,2.80
2018-07-21T17:59:18.814Z,3.20
2018-07-21T18:01:47.309Z,2.80
2018-07-21T18:04:15.657Z,2.70
2018-07-21T18:06:44.113Z,3.10
2018-07-21T18:09:12.487Z,2.50
2018-07-21T18:11:40.913Z,1.33
2018-07-21T18:14:09.363Z,2.13
2018-07-21T18:16:37.700Z,2.00
2018-07-21T18:19:06.082Z,1.60
2018-07-21T18:21:34.490Z,1.63
2018-07-21T18:24:02.812Z,1.50
2018-07-21T18:26:31.765Z,1.20
2018-07-21T18:29:00.789Z,1.60
2018-07-21T18:31:29.132Z,1.50
2018-07-21T18:33:57.555Z,1.07
2018-07-21T18:36:25.914Z,1.30
2018-07-21T18:38:54.297Z,1.50
2018-07-21T18:41:22.677Z,1.20
2018-07-21T18:43:51.059Z,1.50
2018-07-21T18:46:19.444Z,1.40
2018-07-21T18:48:47.783Z,1.30
2018-07-21T18:51:16.346Z,1.37
2018-07-21T18:53:52.380Z,1.50
2018-07-21T18:56:20.913Z,1.07
2018-07-21T18:58:59.373Z,0.93
2018-07-21T19:01:27.767Z,0.80
2018-07-21T19:03:56.807Z,1.07
2018-07-21T19:06:25.155Z,0.70
2018-07-21T19:08:58.773Z,0.90
2018-07-21T19:11:27.136Z,0.70
2018-07-21T19:13:55.568Z,0.87
2018-07-21T19:16:29.397Z,0.80
2018-07-21T19:18:57.797Z,1.37
2018-07-21T19:21:26.359Z,1.20
2018-07-21T19:23:54.691Z,0.80
2018-07-21T19:26:28.356Z,1.27
2018-07-21T19:28:56.765Z,0.77
2018-07-21T19:31:25.283Z,0.70
2018-07-21T19:33:54.342Z,0.77
2018-07-21T19:36:22.730Z,0.70
2018-07-21T19:38:51.065Z,1.50
2018-07-21T19:41:24.545Z,1.07
2018-07-21T19:43:52.937Z,0.57
2018-07-21T19:46:21.515Z,0.70
2018-07-21T19:48:49.880Z,1.20
2018-07-21T19:51:18.892Z,1.30
2018-07-21T19:53:48.131Z,0.83
2018-07-21T19:56:16.495Z,1.57
2018-07-21T19:58:44.857Z,1.10
2018-07-21T20:01:13.259Z,1.10
2018-07-21T20:03:41.666Z,1.00
2018-07-21T20:06:10.154Z,0.60
2018-07-21T20:08:38.571Z,1.00
2018-07-21T20:11:06.898Z,0.83
2018-07-21T20:13:35.293Z,0.90
2018-07-21T20:16:03.621Z,0.50
2018-07-21T20:18:32.017Z,1.10
2018-07-21T20:21:00.170Z,1.43
2018-07-21T20:23:28.321Z,1.50
2018-07-21T20:25:56.702Z,1.47
2018-07-21T20:28:24.792Z,1.87
2018-07-21T20:30:54.085Z,14.37
2018-07-21T20:33:22.477Z,17.47
2018-07-21T20:35:50.806Z,21.67
2018-07-21T20:38:19.263Z,2.57
2018-07-21T20:40:47.631Z,1.43
2018-07-21T20:43:16.030Z,2.00
2018-07-21T20:45:44.375Z,1.93
2018-07-21T20:48:12.768Z,8.77
2018-07-21T20:50:41.423Z,4.50
2018-07-21T20:53:09.801Z,2.73
2018-07-21T20:55:38.531Z,1.67
2018-07-21T20:58:06.978Z,1.57
2018-07-21T21:00:35.350Z,1.50
2018-07-21T21:03:03.745Z,1.33
2018-07-21T21:05:32.626Z,1.43
2018-07-21T21:08:01.096Z,1.77
2018-07-21T21:10:29.447Z,1.30
2018-07-21T21:12:57.818Z,0.97
2018-07-21T21:15:26.185Z,0.93
2018-07-21T21:17:54.571Z,1.57
2018-07-21T21:20:22.957Z,1.03
2018-07-21T21:22:51.515Z,1.10
2018-07-21T21:25:19.822Z,0.93
2018-07-21T21:27:48.206Z,0.83
2018-07-21T21:30:16.591Z,1.03
2018-07-21T21:32:44.973Z,1.00
2018-07-21T21:35:13.335Z,1.17
2018-07-21T21:37:41.708Z,0.90
2018-07-21T21:40:10.244Z,0.80
2018-07-21T21:42:38.609Z,0.80
2018-07-21T21:45:06.997Z,1.00
2018-07-21T21:47:35.345Z,1.10
2018-07-21T21:50:03.741Z,0.80
2018-07-21T21:52:32.116Z,0.97
2018-07-21T21:55:00.454Z,0.93
2018-07-21T21:57:29.192Z,1.03
2018-07-21T21:59:57.594Z,1.57
2018-07-21T22:02:26.543Z,1.00
2018-07-21T22:04:54.921Z,0.60
2018-07-21T22:07:23.274Z,0.80
2018-07-21T22:09:51.704Z,1.07
2018-07-21T22:12:20.096Z,0.90
2018-07-21T22:14:48.580Z,0.93
2018-07-21T22:17:16.840Z,0.60
2018-07-21T22:19:45.286Z,0.90
2018-07-21T22:22:13.689Z,0.97
2018-07-21T22:24:42.188Z,1.07
2018-07-21T22:27:10.571Z,1.07
2018-07-21T22:29:39.088Z,1.33
2018-07-21T22:32:07.444Z,1.23
2018-07-21T22:34:35.816Z,1.00
2018-07-21T22:37:04.300Z,1.30
2018-07-21T22:39:32.418Z,1.47
2018-07-21T22:42:00.762Z,1.57
2018-07-21T22:44:29.146Z,0.77
2018-07-21T22:46:57.692Z,1.27
2018-07-21T22:49:26.048Z,0.70
2018-07-21T22:51:54.400Z,1.10
2018-07-21T22:54:22.784Z,1.23
2018-07-21T22:56:51.142Z,1.00
2018-07-21T22:59:19.590Z,0.93
2018-07-21T23:01:47.940Z,0.70
2018-07-21T23:04:16.282Z,1.53
2018-07-21T23:06:44.636Z,1.53
2018-07-21T23:09:13.012Z,1.47
2018-07-21T23:11:41.392Z,1.57
2018-07-21T23:14:09.824Z,1.57
2018-07-21T23:16:38.217Z,1.83
2018-07-21T23:19:06.687Z,1.60
2018-07-21T23:21:35.028Z,1.27
2018-07-21T23:24:03.505Z,1.73
2018-07-21T23:26:31.858Z,1.80
2018-07-21T23:29:00.212Z,1.93
2018-07-21T23:31:28.587Z,1.83
2018-07-21T23:33:56.947Z,1.77
2018-07-21T23:36:25.289Z,1.83
2018-07-21T23:38:53.752Z,0.83
2018-07-21T23:41:22.073Z,1.30
2018-07-21T23:43:50.417Z,1.70
2018-07-21T23:46:18.789Z,0.80
2018-07-21T23:48:47.137Z,1.60
2018-07-21T23:51:15.581Z,1.63
2018-07-21T23:53:43.923Z,0.70
2018-07-21T23:56:12.369Z,1.57
2018-07-21T23:58:40.759Z,1.30
